Terminal Aerodrome Forecast
Issued by NWS Tampa Bay Area, FL

Home | Current Version | Previous Version | Text Only | Print | Product List | Glossary On
Versions: 1 2 3 4 5 6 7 8 9 10 11 12 13 14 15 16 17 18 19 20 21 22 23 24 25 26 27 28 29 30 31
719
FTUS42 KTBW 280903 AAA
TAFTPA
TAF AMD
KTPA 280903Z 2809/2906 VRB03KT P6SM FEW020 SCT100
     FM281500 22006KT P6SM VCTS SCT025CB BKN120
     FM282200 26008KT P6SM VCTS SCT030CB BKN060
     FM290200 23004KT P6SM SCT035=

USA.gov is the U.S. government's official web portal to all federal, state and local government web resources and services.